Azure — ZCEE2 — position and weather

sailwx.info

Track history (hours):
 
Tides and Currents Weather Stations Pressure Air Temp Water Temp Dewpoint Dewpoint Depression Visibility Wind Speed Wind Dir Waves Ship Positions

Azure

Last reported at 2017-May-26 09:04 UTC. Time now 2017-May-27 02:21 UTC.
Position N 39°26' W 009°53'.

Length 289 m; draft 8.6 m.

Type: Passenger vessel. MMSI: 310610000.

Date/timePositionNaut miles runAvg speedWind from/ knotsBaromVisibWave heightAir tempDewpointWater temp
2017-May-26 09:04N 39°26' W 009°53'219.8
2017-May-26 08:59N 39°24' W 009°53'919.4
2017-May-26 08:30N 39°15' W 009°53'1019.2
2017-May-26 08:00N 39°05' W 009°53'919.0
2017-May-26 07:30N 38°56' W 009°53'918.8
2017-May-26 07:00N 38°47' W 009°53'1019.2
2017-May-26 06:30N 38°37' W 009°49'1019.8
2017-May-26 06:00N 38°28' W 009°46'1019.3
2017-May-26 05:30N 38°19' W 009°42'918.9
2017-May-26 05:00N 38°09' W 009°40'918.8
2017-May-26 04:30N 38°00' W 009°37'918.7
2017-May-26 04:00N 37°51' W 009°35'918.8
2017-May-26 03:30N 37°42' W 009°32'1018.8
2017-May-26 02:59N 37°32' W 009°29'918.7
2017-May-26 02:30N 37°24' W 009°27'1018.6
2017-May-26 02:00N 37°14' W 009°25'89733.1
2017-May-26 02:00N 37°06' W 009°24'1 2.4 360 / 141012.4 18.016.319.0
2017-May-26 01:30N 37°05' W 009°23'1018.9
2017-May-26 00:58N 36°55' W 009°21'918.8
2017-May-26 00:30N 36°48' W 009°14'1119.0
2017-May-25 23:54N 36°44' W 009°01'819.6
2017-May-25 23:30N 36°41' W 008°51'1119.6
2017-May-25 22:57N 36°38' W 008°38'1020.4
2017-May-25 22:27N 36°35' W 008°26'14219.0
2017-May-25 14:59N 35°58' W 005°37'1212.4
2017-May-25 14:00N 36°04' W 005°24'5 0.6
2017-May-25 05:15N 36°09' W 005°22'1 3.3
2017-May-25 05:00N 36°08' W 005°22'4 8.8
2017-May-25 04:31N 36°04' W 005°20'917.4
2017-May-25 03:59N 36°06' W 005°09'15617.7
2017-May-24 19:09N 36°37' W 001°58'2518.3
2017-May-24 17:47N 36°56' W 001°38'618.0
2017-May-24 17:26N 37°00' W 001°33'1118.0
2017-May-24 16:49N 37°09' W 001°24'30 2.4
2017-May-24 04:13N 37°31' W 000°59'211.1
2017-May-24 04:00N 37°30' W 000°56'713.7
2017-May-24 03:30N 37°29' W 000°47'713.5
2017-May-24 02:59N 37°29' W 000°38'613.5
2017-May-24 02:31N 37°30' W 000°30'713.7
2017-May-24 02:00N 37°31' W 000°22'8650.6
2017-May-24 02:00N 37°30' W 000°12'2 4.8 040 / 161019.410.8 19.015.620.0
2017-May-24 01:30N 37°32' W 000°13'1913.8
2017-May-24 00:07N 37°35' E 000°11'213.8
2017-May-24 00:01N 37°36' E 000°13'714.0
2017-May-23 23:29N 37°37' E 000°22'714.3
2017-May-23 22:57N 37°38' E 000°31'1814.2
2017-May-23 21:43N 37°41' E 000°53'414.3
2017-May-23 21:24N 37°42' E 000°58'614.3
2017-May-23 21:00N 37°43' E 001°06'1114.2
2017-May-23 20:15N 37°45' E 001°19'311.6
2017-May-23 20:00N 37°42' E 001°18'6415.3 080 / 151019.210.8 20.016.719.0
2017-May-23 15:46N 37°56' E 002°38'413.7
2017-May-23 15:31N 37°57' E 002°42'2415.6
2017-May-23 14:00N 38°00' E 003°12'4 8.4 060 / 201018.110.8 21.515.720.0
2017-May-23 13:30N 38°01' E 003°17'714.0
2017-May-23 13:00N 38°03' E 003°26'1914.1
2017-May-23 11:39N 38°06' E 003°49'214.0
2017-May-23 11:30N 38°06' E 003°52'813.8
2017-May-23 10:55N 38°08' E 004°02'4114.0
2017-May-23 08:00N 38°12' E 004°54'4014.0 060 / 171017.410.8 21.014.220.0
2017-May-23 05:08N 38°22' E 005°43'214.4
2017-May-23 05:00N 38°22' E 005°46'714.3
2017-May-23 04:30N 38°23' E 005°55'714.2
2017-May-23 04:00N 38°25' E 006°04'714.1
2017-May-23 03:30N 38°26' E 006°13'813.8
2017-May-23 02:55N 38°27' E 006°23'613.6
2017-May-23 02:30N 38°28' E 006°30'1019.1
2017-May-23 02:00N 38°30' E 006°42'3843.4 080 / 101017.0 20.014.920.0
2017-May-23 01:59N 38°29' E 006°39'714.1
2017-May-23 01:30N 38°31' E 006°48'714.2
2017-May-23 01:00N 38°32' E 006°56'714.0
2017-May-23 00:30N 38°33' E 007°05'714.0
2017-May-23 00:00N 38°34' E 007°14'814.2
2017-May-22 23:27N 38°36' E 007°24'814.1
2017-May-22 22:53N 38°37' E 007°34'614.3
2017-May-22 22:30N 38°38' E 007°41'714.4
2017-May-22 22:00N 38°39' E 007°50'714.1
2017-May-22 21:30N 38°40' E 007°59'713.9
2017-May-22 21:00N 38°36' E 008°06'65071.3 050 / 131017.410.8 19.013.818.0
2017-May-22 20:59N 38°41' E 008°08'714.1
2017-May-22 20:28N 38°43' E 008°17'714.2
2017-May-22 20:00N 38°44' E 008°26'914.5
2017-May-22 19:20N 38°46' E 008°38'514.5
2017-May-22 18:58N 38°47' E 008°44'714.4
2017-May-22 18:30N 38°48' E 008°53'714.4
2017-May-22 18:00N 38°52' E 009°01'714.2
2017-May-22 17:30N 38°56' E 009°08'714.0
2017-May-22 16:59N 39°03' E 009°09'713.6
2017-May-22 16:30N 39°10' E 009°07'3 5.3
2017-May-22 16:00N 39°12' E 009°07'0 0.6
2017-May-22 15:30N 39°13' E 009°06'0 0.0
2017-May-22 15:00N 39°13' E 009°06'0 0.0
2017-May-22 14:00N 39°13' E 009°06'0 0.0
2017-May-22 13:30N 39°13' E 009°06'0 0.0
2017-May-22 12:59N 39°13' E 009°06'0 0.0
2017-May-22 12:28N 39°13' E 009°06'0 0.0
2017-May-22 11:58N 39°13' E 009°06'0 0.0
2017-May-22 11:28N 39°13' E 009°06'0 0.0
2017-May-22 10:58N 39°13' E 009°06'0 0.0
2017-May-22 10:28N 39°13' E 009°06'0 0.0
2017-May-22 09:55N 39°13' E 009°06'0 0.0
2017-May-22 09:28N 39°13' E 009°06'0 0.0
2017-May-22 08:58N 39°13' E 009°06'0 0.0
2017-May-22 08:22N 39°13' E 009°06'0 0.0
2017-May-22 07:58N 39°13' E 009°06'0 0.0
2017-May-22 07:30N 39°13' E 009°06'0 0.0
2017-May-22 06:57N 39°13' E 009°06'0 0.2
2017-May-22 06:30N 39°13' E 009°06'2 4.8
2017-May-22 06:00N 39°10' E 009°07'816.2
2017-May-22 05:30N 39°05' E 009°15'1121.4
2017-May-22 05:00N 39°00' E 009°28'919.2
2017-May-22 04:30N 39°03' E 009°39'1121.5
2017-May-22 04:00N 39°12' E 009°47'1221.3
2017-May-22 03:28N 39°22' E 009°54'1120.9
2017-May-22 02:57N 39°31' E 010°00'920.7
2017-May-22 02:30N 39°40' E 010°06'1529.3
2017-May-22 02:00N 39°54' E 010°12'4135.3 280 / 91018.110.8 19.011.820.0
2017-May-22 01:58N 39°50' E 010°12'1020.1
2017-May-22 01:29N 39°59' E 010°18'918.9
2017-May-22 00:59N 40°07' E 010°23'919.3
2017-May-22 00:30N 40°15' E 010°28'1019.3
2017-May-21 23:59N 40°24' E 010°34'1019.5
2017-May-21 23:27N 40°34' E 010°40'919.6
2017-May-21 22:59N 40°42' E 010°46'919.5
2017-May-21 22:30N 40°50' E 010°51'1019.5
2017-May-21 22:00N 40°59' E 010°57'1019.4
2017-May-21 21:30N 41°08' E 011°02'1019.4
2017-May-21 20:59N 41°17' E 011°09'919.5
2017-May-21 20:30N 41°25' E 011°14'1019.5
2017-May-21 20:00N 41°34' E 011°20'1019.3
2017-May-21 19:30N 41°43' E 011°26'1019.6
2017-May-21 19:00N 41°51' E 011°31'1019.4
2017-May-21 18:28N 42°00' E 011°38'815.4
2017-May-21 17:56N 42°07' E 011°45'1 2.7
2017-May-21 17:29N 42°06' E 011°46'49 2.9
2017-May-21 00:25N 42°18' E 010°42'921.4
2017-May-21 00:01N 42°23' E 010°33'1121.4
2017-May-20 23:30N 42°30' E 010°22'1221.5
2017-May-20 22:57N 42°38' E 010°09'921.2
2017-May-20 22:30N 42°42' E 009°58'1120.9
2017-May-20 22:00N 42°49' E 009°47'1020.8
2017-May-20 21:31N 42°57' E 009°38'1120.9
2017-May-20 21:00N 43°06' E 009°31'83353563.1
2017-May-20 21:00N 43°06' W 009°30'8231699.2 250 / 311016.910.8 16.512.919.0
2017-May-20 20:30N 43°11' E 009°18'1121.7
2017-May-20 20:00N 43°15' E 009°04'1121.7
2017-May-20 19:30N 43°19' E 008°51'1121.5
2017-May-20 19:01N 43°23' E 008°37'1121.4
2017-May-20 18:31N 43°27' E 008°23'1121.3
2017-May-20 18:00N 43°31' E 008°09'1020.9
2017-May-20 17:30N 43°35' E 007°56'1020.5
2017-May-20 17:00N 43°38' E 007°43'1019.7
2017-May-20 16:30N 43°42' E 007°30'89 6.2
2017-May-20 02:00N 42°42' E 006°00'8316.7 320 / 401017.0 16.510.919.0
2017-May-19 21:00N 42°06' E 004°18'9019.9 280 / 271021.610.8 17.011.519.0
2017-May-19 16:28N 41°24' E 002°32'919.2
2017-May-19 16:00N 41°20' E 002°21'816.6
2017-May-19 15:30N 41°17' E 002°11'4 8.8
2017-May-19 15:00N 41°21' E 002°10'13 1.2
2017-May-19 04:07N 41°08' E 002°10'215.5
2017-May-19 04:00N 41°07' E 002°08'815.8
2017-May-19 03:30N 41°01' E 002°02'815.9
2017-May-19 03:00N 40°54' E 001°56'816.0
2017-May-19 02:30N 40°47' E 001°51'816.2
2017-May-19 02:00N 40°40' E 001°46'5345.5
2017-May-19 02:00N 40°36' E 001°42'3 7.0 300 / 231015.810.8 15.0 6.919.0
2017-May-19 01:30N 40°33' E 001°41'917.4
2017-May-19 01:00N 40°25' E 001°36'917.4
2017-May-19 00:30N 40°17' E 001°31'917.0
2017-May-19 00:00N 40°10' E 001°26'917.0
2017-May-18 23:30N 40°02' E 001°20'917.4
2017-May-18 23:00N 39°54' E 001°15'917.3
2017-May-18 22:30N 39°47' E 001°10'2617.1
2017-May-18 21:00N 39°24' E 000°54'712.8 350 / 251015.810.8 19.012.819.0
2017-May-18 20:27N 39°18' E 000°51'2415.9
2017-May-18 18:55N 38°56' E 000°36'1516.4
2017-May-18 18:00N 38°42' E 000°28'816.4
2017-May-18 17:30N 38°35' E 000°23'816.1
2017-May-18 17:00N 38°28' E 000°17'2015.4
2017-May-18 15:44N 38°12' E 000°03'716.2
2017-May-18 15:19N 38°07' W 000°02'516.3
2017-May-18 15:00N 38°03' W 000°06'917.0
2017-May-18 14:28N 37°55' W 000°12'1429.6
2017-May-18 14:00N 37°42' W 000°18'511.2 260 / 111012.4 22.017.219.0
2017-May-18 13:30N 37°42' W 000°25'916.8
2017-May-18 12:59N 37°35' W 000°30'1016.8
2017-May-18 12:22N 37°27' W 000°39'616.8
2017-May-18 12:00N 37°23' W 000°45'916.5
2017-May-18 11:28N 37°17' W 000°53'1417.2
2017-May-18 10:39N 37°07' W 001°06'817.0
2017-May-18 10:11N 37°02' W 001°13'917.3
2017-May-18 09:40N 36°56' W 001°22'317.5
2017-May-18 09:30N 36°54' W 001°24'1417.5
2017-May-18 08:44N 36°45' W 001°37'517.6
2017-May-18 08:27N 36°42' W 001°41'817.5
2017-May-18 08:01N 36°37' W 001°49'162.5
2017-May-18 08:00N 36°36' W 001°48'11018.4 270 / 141013.710.8 21.016.019.0
2017-May-18 02:00N 36°06' W 004°00'5915.8 100 / 31014.910.8 19.016.519.0
2017-May-17 22:17N 35°60' W 005°12'517.5
2017-May-17 22:00N 35°59' W 005°18'919.0
2017-May-17 21:30N 35°57' W 005°29'108 5.8
2017-May-17 02:49N 36°33' W 007°35'920.4
2017-May-17 02:24N 36°33' W 007°46'820.5
2017-May-17 02:00N 36°33' W 007°56'1020.3
2017-May-17 01:30N 36°32' W 008°09'1120.3
2017-May-17 00:57N 36°31' W 008°23'920.0
2017-May-17 00:29N 36°32' W 008°34'1020.2
2017-May-16 23:58N 36°32' W 008°47'919.3
2017-May-16 23:30N 36°32' W 008°58'1018.8
2017-May-16 22:59N 36°33' W 009°10'1019.1
2017-May-16 22:28N 36°36' W 009°22'1019.6
2017-May-16 21:58N 36°44' W 009°30'919.0
2017-May-16 21:29N 36°52' W 009°35'919.2
2017-May-16 20:59N 37°01' W 009°38'919.4
2017-May-16 20:30N 37°10' W 009°37'919.0
2017-May-16 20:00N 37°20' W 009°40'4243.4
2017-May-16 20:00N 37°18' W 009°36'1225.2 330 / 151021.0 5.4 20.016.719.0
2017-May-16 19:31N 37°29' W 009°43'1019.3
2017-May-16 19:00N 37°38' W 009°46'1019.1
2017-May-16 18:30N 37°48' W 009°48'1019.0
2017-May-16 18:00N 37°57' W 009°51'918.8
2017-May-16 17:30N 38°06' W 009°54'918.6
2017-May-16 17:01N 38°15' W 009°56'918.7
2017-May-16 16:30N 38°24' W 009°59'918.8
2017-May-16 16:00N 38°33' W 010°01'917.5
2017-May-16 15:30N 38°42' W 010°04'917.8
2017-May-16 15:00N 38°51' W 010°05'1019.3
2017-May-16 14:31N 39°00' W 010°05'1222.6
2017-May-16 14:00N 39°12' W 010°06'816.1 010 / 141023.6 0.3 20.014.918.0
2017-May-16 13:31N 39°20' W 010°05'1019.4
2017-May-16 13:00N 39°29' W 010°06'1020.1
2017-May-16 12:30N 39°40' W 010°06'1020.0
2017-May-16 12:00N 39°50' W 010°05'1020.2
2017-May-16 11:30N 39°60' W 010°05'1020.2
2017-May-16 11:00N 40°10' W 010°06'1020.0
2017-May-16 10:31N 40°20' W 010°05'1019.9
2017-May-16 10:00N 40°30' W 010°06'1020.0
2017-May-16 09:30N 40°40' W 010°06'  
Track history (hours):
 
Tides and Currents Weather Stations Pressure Air Temp Water Temp Dewpoint Dewpoint Depression Visibility Wind Speed Wind Dir Waves Ship Positions

Azure

Last reported at 2017-May-26 09:04 UTC. Time now 2017-May-27 02:21 UTC.
Position N 39°26' W 009°53'.

Length 289 m; draft 8.6 m.

Type: Passenger vessel. MMSI: 310610000.

Date/timePositionNaut miles runAvg speedWind from/ knotsBaromVisibWave heightAir tempDewpointWater temp
2017-May-26 09:04N 39°26' W 009°53'219.8
2017-May-26 08:59N 39°24' W 009°53'919.4
2017-May-26 08:30N 39°15' W 009°53'1019.2
2017-May-26 08:00N 39°05' W 009°53'919.0
2017-May-26 07:30N 38°56' W 009°53'918.8
2017-May-26 07:00N 38°47' W 009°53'1019.2
2017-May-26 06:30N 38°37' W 009°49'1019.8
2017-May-26 06:00N 38°28' W 009°46'1019.3
2017-May-26 05:30N 38°19' W 009°42'918.9
2017-May-26 05:00N 38°09' W 009°40'918.8
2017-May-26 04:30N 38°00' W 009°37'918.7
2017-May-26 04:00N 37°51' W 009°35'918.8
2017-May-26 03:30N 37°42' W 009°32'1018.8
2017-May-26 02:59N 37°32' W 009°29'918.7
2017-May-26 02:30N 37°24' W 009°27'1018.6
2017-May-26 02:00N 37°14' W 009°25'89733.1
2017-May-26 02:00N 37°06' W 009°24'1 2.4 360 / 141012.4 18.016.319.0
2017-May-26 01:30N 37°05' W 009°23'1018.9
2017-May-26 00:58N 36°55' W 009°21'918.8
2017-May-26 00:30N 36°48' W 009°14'1119.0
2017-May-25 23:54N 36°44' W 009°01'819.6
2017-May-25 23:30N 36°41' W 008°51'1119.6
2017-May-25 22:57N 36°38' W 008°38'1020.4
2017-May-25 22:27N 36°35' W 008°26'14219.0
2017-May-25 14:59N 35°58' W 005°37'1212.4
2017-May-25 14:00N 36°04' W 005°24'5 0.6
2017-May-25 05:15N 36°09' W 005°22'1 3.3
2017-May-25 05:00N 36°08' W 005°22'4 8.8
2017-May-25 04:31N 36°04' W 005°20'917.4
2017-May-25 03:59N 36°06' W 005°09'15617.7
2017-May-24 19:09N 36°37' W 001°58'2518.3
2017-May-24 17:47N 36°56' W 001°38'618.0
2017-May-24 17:26N 37°00' W 001°33'1118.0
2017-May-24 16:49N 37°09' W 001°24'30 2.4
2017-May-24 04:13N 37°31' W 000°59'211.1
2017-May-24 04:00N 37°30' W 000°56'713.7
2017-May-24 03:30N 37°29' W 000°47'713.5
2017-May-24 02:59N 37°29' W 000°38'613.5
2017-May-24 02:31N 37°30' W 000°30'713.7
2017-May-24 02:00N 37°31' W 000°22'8650.6
2017-May-24 02:00N 37°30' W 000°12'2 4.8 040 / 161019.410.8 19.015.620.0
2017-May-24 01:30N 37°32' W 000°13'1913.8
2017-May-24 00:07N 37°35' E 000°11'213.8
2017-May-24 00:01N 37°36' E 000°13'714.0
2017-May-23 23:29N 37°37' E 000°22'714.3
2017-May-23 22:57N 37°38' E 000°31'1814.2
2017-May-23 21:43N 37°41' E 000°53'414.3
2017-May-23 21:24N 37°42' E 000°58'614.3
2017-May-23 21:00N 37°43' E 001°06'1114.2
2017-May-23 20:15N 37°45' E 001°19'311.6
2017-May-23 20:00N 37°42' E 001°18'6415.3 080 / 151019.210.8 20.016.719.0
2017-May-23 15:46N 37°56' E 002°38'413.7
2017-May-23 15:31N 37°57' E 002°42'2415.6
2017-May-23 14:00N 38°00' E 003°12'4 8.4 060 / 201018.110.8 21.515.720.0
2017-May-23 13:30N 38°01' E 003°17'714.0
2017-May-23 13:00N 38°03' E 003°26'1914.1
2017-May-23 11:39N 38°06' E 003°49'214.0
2017-May-23 11:30N 38°06' E 003°52'813.8
2017-May-23 10:55N 38°08' E 004°02'4114.0
2017-May-23 08:00N 38°12' E 004°54'4014.0 060 / 171017.410.8 21.014.220.0
2017-May-23 05:08N 38°22' E 005°43'214.4
2017-May-23 05:00N 38°22' E 005°46'714.3
2017-May-23 04:30N 38°23' E 005°55'714.2
2017-May-23 04:00N 38°25' E 006°04'714.1
2017-May-23 03:30N 38°26' E 006°13'813.8
2017-May-23 02:55N 38°27' E 006°23'613.6
2017-May-23 02:30N 38°28' E 006°30'1019.1
2017-May-23 02:00N 38°30' E 006°42'3843.4 080 / 101017.0 20.014.920.0
2017-May-23 01:59N 38°29' E 006°39'714.1
2017-May-23 01:30N 38°31' E 006°48'714.2
2017-May-23 01:00N 38°32' E 006°56'714.0
2017-May-23 00:30N 38°33' E 007°05'714.0
2017-May-23 00:00N 38°34' E 007°14'814.2
2017-May-22 23:27N 38°36' E 007°24'814.1
2017-May-22 22:53N 38°37' E 007°34'614.3
2017-May-22 22:30N 38°38' E 007°41'714.4
2017-May-22 22:00N 38°39' E 007°50'714.1
2017-May-22 21:30N 38°40' E 007°59'713.9
2017-May-22 21:00N 38°36' E 008°06'65071.3 050 / 131017.410.8 19.013.818.0
2017-May-22 20:59N 38°41' E 008°08'714.1
2017-May-22 20:28N 38°43' E 008°17'714.2
2017-May-22 20:00N 38°44' E 008°26'914.5
2017-May-22 19:20N 38°46' E 008°38'514.5
2017-May-22 18:58N 38°47' E 008°44'714.4
2017-May-22 18:30N 38°48' E 008°53'714.4
2017-May-22 18:00N 38°52' E 009°01'714.2
2017-May-22 17:30N 38°56' E 009°08'714.0
2017-May-22 16:59N 39°03' E 009°09'713.6
2017-May-22 16:30N 39°10' E 009°07'3 5.3
2017-May-22 16:00N 39°12' E 009°07'0 0.6
2017-May-22 15:30N 39°13' E 009°06'0 0.0
2017-May-22 15:00N 39°13' E 009°06'0 0.0
2017-May-22 14:00N 39°13' E 009°06'0 0.0
2017-May-22 13:30N 39°13' E 009°06'0 0.0
2017-May-22 12:59N 39°13' E 009°06'0 0.0
2017-May-22 12:28N 39°13' E 009°06'0 0.0
2017-May-22 11:58N 39°13' E 009°06'0 0.0
2017-May-22 11:28N 39°13' E 009°06'0 0.0
2017-May-22 10:58N 39°13' E 009°06'0 0.0
2017-May-22 10:28N 39°13' E 009°06'0 0.0
2017-May-22 09:55N 39°13' E 009°06'0 0.0
2017-May-22 09:28N 39°13' E 009°06'0 0.0
2017-May-22 08:58N 39°13' E 009°06'0 0.0
2017-May-22 08:22N 39°13' E 009°06'0 0.0
2017-May-22 07:58N 39°13' E 009°06'0 0.0
2017-May-22 07:30N 39°13' E 009°06'0 0.0
2017-May-22 06:57N 39°13' E 009°06'0 0.2
2017-May-22 06:30N 39°13' E 009°06'2 4.8
2017-May-22 06:00N 39°10' E 009°07'816.2
2017-May-22 05:30N 39°05' E 009°15'1121.4
2017-May-22 05:00N 39°00' E 009°28'919.2
2017-May-22 04:30N 39°03' E 009°39'1121.5
2017-May-22 04:00N 39°12' E 009°47'1221.3
2017-May-22 03:28N 39°22' E 009°54'1120.9
2017-May-22 02:57N 39°31' E 010°00'920.7
2017-May-22 02:30N 39°40' E 010°06'1529.3
2017-May-22 02:00N 39°54' E 010°12'4135.3 280 / 91018.110.8 19.011.820.0
2017-May-22 01:58N 39°50' E 010°12'1020.1
2017-May-22 01:29N 39°59' E 010°18'918.9
2017-May-22 00:59N 40°07' E 010°23'919.3
2017-May-22 00:30N 40°15' E 010°28'1019.3
2017-May-21 23:59N 40°24' E 010°34'1019.5
2017-May-21 23:27N 40°34' E 010°40'919.6
2017-May-21 22:59N 40°42' E 010°46'919.5
2017-May-21 22:30N 40°50' E 010°51'1019.5
2017-May-21 22:00N 40°59' E 010°57'1019.4
2017-May-21 21:30N 41°08' E 011°02'1019.4
2017-May-21 20:59N 41°17' E 011°09'919.5
2017-May-21 20:30N 41°25' E 011°14'1019.5
2017-May-21 20:00N 41°34' E 011°20'1019.3
2017-May-21 19:30N 41°43' E 011°26'1019.6
2017-May-21 19:00N 41°51' E 011°31'1019.4
2017-May-21 18:28N 42°00' E 011°38'815.4
2017-May-21 17:56N 42°07' E 011°45'1 2.7
2017-May-21 17:29N 42°06' E 011°46'49 2.9
2017-May-21 00:25N 42°18' E 010°42'921.4
2017-May-21 00:01N 42°23' E 010°33'1121.4
2017-May-20 23:30N 42°30' E 010°22'1221.5
2017-May-20 22:57N 42°38' E 010°09'921.2
2017-May-20 22:30N 42°42' E 009°58'1120.9
2017-May-20 22:00N 42°49' E 009°47'1020.8
2017-May-20 21:31N 42°57' E 009°38'1120.9
2017-May-20 21:00N 43°06' E 009°31'83353563.1
2017-May-20 21:00N 43°06' W 009°30'8231699.2 250 / 311016.910.8 16.512.919.0
2017-May-20 20:30N 43°11' E 009°18'1121.7
2017-May-20 20:00N 43°15' E 009°04'1121.7
2017-May-20 19:30N 43°19' E 008°51'1121.5
2017-May-20 19:01N 43°23' E 008°37'1121.4
2017-May-20 18:31N 43°27' E 008°23'1121.3
2017-May-20 18:00N 43°31' E 008°09'1020.9
2017-May-20 17:30N 43°35' E 007°56'1020.5
2017-May-20 17:00N 43°38' E 007°43'1019.7
2017-May-20 16:30N 43°42' E 007°30'89 6.2
2017-May-20 02:00N 42°42' E 006°00'8316.7 320 / 401017.0 16.510.919.0
2017-May-19 21:00N 42°06' E 004°18'9019.9 280 / 271021.610.8 17.011.519.0
2017-May-19 16:28N 41°24' E 002°32'919.2
2017-May-19 16:00N 41°20' E 002°21'816.6
2017-May-19 15:30N 41°17' E 002°11'4 8.8
2017-May-19 15:00N 41°21' E 002°10'13 1.2
2017-May-19 04:07N 41°08' E 002°10'215.5
2017-May-19 04:00N 41°07' E 002°08'815.8
2017-May-19 03:30N 41°01' E 002°02'815.9
2017-May-19 03:00N 40°54' E 001°56'816.0
2017-May-19 02:30N 40°47' E 001°51'816.2
2017-May-19 02:00N 40°40' E 001°46'5345.5
2017-May-19 02:00N 40°36' E 001°42'3 7.0 300 / 231015.810.8 15.0 6.919.0
2017-May-19 01:30N 40°33' E 001°41'917.4
2017-May-19 01:00N 40°25' E 001°36'917.4
2017-May-19 00:30N 40°17' E 001°31'917.0
2017-May-19 00:00N 40°10' E 001°26'917.0
2017-May-18 23:30N 40°02' E 001°20'917.4
2017-May-18 23:00N 39°54' E 001°15'917.3
2017-May-18 22:30N 39°47' E 001°10'2617.1
2017-May-18 21:00N 39°24' E 000°54'712.8 350 / 251015.810.8 19.012.819.0
2017-May-18 20:27N 39°18' E 000°51'2415.9
2017-May-18 18:55N 38°56' E 000°36'1516.4
2017-May-18 18:00N 38°42' E 000°28'816.4
2017-May-18 17:30N 38°35' E 000°23'816.1
2017-May-18 17:00N 38°28' E 000°17'2015.4
2017-May-18 15:44N 38°12' E 000°03'716.2
2017-May-18 15:19N 38°07' W 000°02'516.3
2017-May-18 15:00N 38°03' W 000°06'917.0
2017-May-18 14:28N 37°55' W 000°12'1429.6
2017-May-18 14:00N 37°42' W 000°18'511.2 260 / 111012.4 22.017.219.0
2017-May-18 13:30N 37°42' W 000°25'916.8
2017-May-18 12:59N 37°35' W 000°30'1016.8
2017-May-18 12:22N 37°27' W 000°39'616.8
2017-May-18 12:00N 37°23' W 000°45'916.5
2017-May-18 11:28N 37°17' W 000°53'1417.2
2017-May-18 10:39N 37°07' W 001°06'817.0
2017-May-18 10:11N 37°02' W 001°13'917.3
2017-May-18 09:40N 36°56' W 001°22'317.5
2017-May-18 09:30N 36°54' W 001°24'1417.5
2017-May-18 08:44N 36°45' W 001°37'517.6
2017-May-18 08:27N 36°42' W 001°41'817.5
2017-May-18 08:01N 36°37' W 001°49'162.5
2017-May-18 08:00N 36°36' W 001°48'11018.4 270 / 141013.710.8 21.016.019.0
2017-May-18 02:00N 36°06' W 004°00'5915.8 100 / 31014.910.8 19.016.519.0
2017-May-17 22:17N 35°60' W 005°12'517.5
2017-May-17 22:00N 35°59' W 005°18'919.0
2017-May-17 21:30N 35°57' W 005°29'108 5.8
2017-May-17 02:49N 36°33' W 007°35'920.4
2017-May-17 02:24N 36°33' W 007°46'820.5
2017-May-17 02:00N 36°33' W 007°56'1020.3
2017-May-17 01:30N 36°32' W 008°09'1120.3
2017-May-17 00:57N 36°31' W 008°23'920.0
2017-May-17 00:29N 36°32' W 008°34'1020.2
2017-May-16 23:58N 36°32' W 008°47'919.3
2017-May-16 23:30N 36°32' W 008°58'1018.8
2017-May-16 22:59N 36°33' W 009°10'1019.1
2017-May-16 22:28N 36°36' W 009°22'1019.6
2017-May-16 21:58N 36°44' W 009°30'919.0
2017-May-16 21:29N 36°52' W 009°35'919.2
2017-May-16 20:59N 37°01' W 009°38'919.4
2017-May-16 20:30N 37°10' W 009°37'919.0
2017-May-16 20:00N 37°20' W 009°40'4243.4
2017-May-16 20:00N 37°18' W 009°36'1225.2 330 / 151021.0 5.4 20.016.719.0
2017-May-16 19:31N 37°29' W 009°43'1019.3
2017-May-16 19:00N 37°38' W 009°46'1019.1
2017-May-16 18:30N 37°48' W 009°48'1019.0
2017-May-16 18:00N 37°57' W 009°51'918.8
2017-May-16 17:30N 38°06' W 009°54'918.6
2017-May-16 17:01N 38°15' W 009°56'918.7
2017-May-16 16:30N 38°24' W 009°59'918.8
2017-May-16 16:00N 38°33' W 010°01'917.5
2017-May-16 15:30N 38°42' W 010°04'917.8
2017-May-16 15:00N 38°51' W 010°05'1019.3
2017-May-16 14:31N 39°00' W 010°05'1222.6
2017-May-16 14:00N 39°12' W 010°06'816.1 010 / 141023.6 0.3 20.014.918.0
2017-May-16 13:31N 39°20' W 010°05'1019.4
2017-May-16 13:00N 39°29' W 010°06'1020.1
2017-May-16 12:30N 39°40' W 010°06'1020.0
2017-May-16 12:00N 39°50' W 010°05'1020.2
2017-May-16 11:30N 39°60' W 010°05'1020.2
2017-May-16 11:00N 40°10' W 010°06'1020.0
2017-May-16 10:31N 40°20' W 010°05'1019.9
2017-May-16 10:00N 40°30' W 010°06'1020.0
2017-May-16 09:30N 40°40' W 010°06'  

Dump ship's entire track history